createdAt,value
2019-05-14T00:00:21.610Z,7.67
2019-05-14T00:01:22.109Z,7.51
2019-05-14T00:02:21.372Z,7.4
2019-05-14T00:06:51.853Z,7.08
2019-05-14T00:07:52.047Z,7.29
2019-05-14T00:08:51.998Z,7.33
2019-05-14T00:09:51.877Z,7.32
2019-05-14T00:10:51.968Z,7.18
2019-05-14T00:11:51.202Z,7.04
2019-05-14T00:12:51.221Z,7.01
2019-05-14T00:13:51.826Z,7.19
2019-05-14T00:14:51.578Z,7.25
2019-05-14T00:15:51.939Z,7.21
2019-05-14T00:16:51.298Z,7.15
2019-05-14T00:17:52.015Z,7.05
2019-05-14T00:18:51.136Z,7.21
2019-05-14T00:20:05.403Z,7.26
2019-05-14T00:20:51.147Z,7.21
2019-05-14T00:21:51.384Z,7.22
2019-05-14T00:22:52.138Z,7.18
2019-05-14T00:23:51.354Z,7.19
2019-05-14T00:24:51.935Z,7.15
2019-05-14T00:25:52.240Z,7.04
2019-05-14T00:26:51.893Z,6.95
2019-05-14T00:27:51.726Z,6.83
2019-05-14T00:28:51.183Z,6.82
2019-05-14T00:29:51.743Z,6.8
2019-05-14T00:30:52.164Z,6.6
2019-05-14T00:31:51.634Z,6.5
2019-05-14T00:32:51.873Z,6.53
2019-05-14T00:33:51.228Z,6.38
2019-05-14T00:34:51.523Z,6.31
2019-05-14T00:35:51.427Z,6.31
2019-05-14T00:36:52.136Z,6.41
2019-05-14T00:37:51.899Z,6.52
2019-05-14T00:38:51.217Z,6.41
2019-05-14T00:39:51.972Z,6.31
2019-05-14T00:40:51.320Z,6.44
2019-05-14T00:41:51.190Z,6.22
2019-05-14T00:42:49.985Z,6.28
2019-05-14T00:43:51.325Z,6.28
2019-05-14T00:45:03.869Z,6.36
2019-05-14T00:45:51.060Z,6.35
2019-05-14T00:46:51.574Z,6.47
2019-05-14T00:47:52.223Z,6.38
2019-05-14T00:48:51.395Z,6.52
2019-05-14T00:49:51.662Z,6.54
2019-05-14T00:50:51.582Z,6.36
2019-05-14T00:51:51.888Z,6.34
2019-05-14T00:52:54.184Z,6.34
2019-05-14T00:53:51.526Z,6.2
2019-05-14T00:54:51.957Z,6.16
2019-05-14T00:55:51.529Z,6.19
2019-05-14T00:56:51.950Z,6.15
2019-05-14T00:57:52.123Z,5.99
2019-05-14T00:58:52.048Z,6.32
2019-05-14T01:00:54.716Z,6.36
2019-05-14T01:01:07.578Z,6.39
2019-05-14T01:02:08.424Z,6.5
2019-05-14T01:03:07.736Z,6.29
2019-05-14T01:04:07.546Z,6.5
2019-05-14T01:05:07.556Z,6.28
2019-05-14T01:06:08.374Z,6.47
2019-05-14T01:07:07.662Z,6.38
2019-05-14T01:08:07.520Z,6.56
2019-05-14T01:09:07.608Z,6.62
2019-05-14T01:10:07.790Z,6.5
2019-05-14T01:11:07.646Z,6.43
2019-05-14T01:12:07.604Z,6.39
2019-05-14T01:13:07.947Z,6.59
2019-05-14T01:14:07.602Z,6.57
2019-05-14T01:15:18.587Z,6.65
2019-05-14T01:16:07.574Z,6.68
2019-05-14T01:17:07.545Z,6.62
2019-05-14T01:18:07.664Z,6.52
2019-05-14T01:19:07.593Z,6.71
2019-05-14T01:20:08.401Z,6.68
2019-05-14T01:21:07.594Z,6.52
2019-05-14T01:22:07.614Z,6.57
2019-05-14T01:23:07.639Z,6.56
2019-05-14T01:24:07.609Z,6.39
2019-05-14T01:25:07.920Z,6.35
2019-05-14T01:26:07.913Z,6.44
2019-05-14T01:27:07.588Z,6.36
2019-05-14T01:28:07.628Z,6.39
2019-05-14T01:29:07.533Z,6.26
2019-05-14T01:30:08.320Z,6.22
2019-05-14T01:31:07.883Z,6.16
2019-05-14T01:32:07.596Z,6.13
2019-05-14T01:33:07.562Z,6.17
2019-05-14T01:34:07.672Z,6.13
2019-05-14T01:35:07.596Z,5.98
2019-05-14T01:36:07.579Z,5.84
2019-05-14T01:37:07.958Z,5.97
2019-05-14T01:38:08.067Z,5.91
2019-05-14T01:39:07.583Z,5.91
2019-05-14T01:40:08.411Z,6.09
2019-05-14T01:41:07.594Z,6.13
2019-05-14T01:42:07.975Z,6.34
2019-05-14T01:43:08.000Z,6.35
2019-05-14T01:44:07.634Z,6.43
2019-05-14T01:45:21.739Z,6.36
2019-05-14T01:46:07.570Z,6.5
2019-05-14T01:47:07.799Z,6.35
2019-05-14T01:48:07.661Z,6.34
2019-05-14T01:49:07.565Z,6.5
2019-05-14T01:50:08.677Z,6.38
2019-05-14T01:51:07.662Z,6.43
2019-05-14T01:52:07.674Z,6.5
2019-05-14T01:53:07.578Z,6.39
2019-05-14T01:54:07.602Z,6.56
2019-05-14T01:55:07.628Z,6.5
2019-05-14T01:56:07.630Z,6.54
2019-05-14T01:57:07.783Z,6.52
2019-05-14T01:58:07.774Z,6.35
2019-05-14T01:59:07.618Z,6.25
2019-05-14T02:00:07.724Z,6.28
2019-05-14T02:01:08.081Z,6.17
2019-05-14T02:02:07.854Z,6.17
2019-05-14T02:03:07.759Z,6.05
2019-05-14T02:04:07.683Z,5.91
2019-05-14T02:05:07.610Z,6.06
2019-05-14T02:06:07.759Z,6.06
2019-05-14T02:07:07.727Z,6.19
2019-05-14T02:08:07.651Z,6.06
2019-05-14T02:09:07.636Z,6.26
2019-05-14T02:10:07.752Z,6.25
2019-05-14T02:11:07.626Z,6.17
2019-05-14T02:12:07.637Z,6.19
2019-05-14T02:13:07.623Z,6.1
2019-05-14T02:14:07.812Z,6.05
2019-05-14T02:15:07.817Z,6.16
2019-05-14T02:16:08.297Z,6.01
2019-05-14T02:17:07.665Z,6.12
2019-05-14T02:18:07.760Z,5.94
2019-05-14T02:19:07.638Z,6.02
2019-05-14T02:20:07.755Z,6.01
2019-05-14T02:21:07.655Z,6.05
2019-05-14T02:22:07.821Z,5.99
2019-05-14T02:23:07.691Z,5.99
2019-05-14T02:24:07.630Z,5.91
2019-05-14T02:25:07.789Z,5.83
2019-05-14T02:26:08.019Z,5.79
2019-05-14T02:27:07.781Z,5.81
2019-05-14T02:28:07.647Z,5.79
2019-05-14T02:29:07.724Z,5.61
2019-05-14T02:30:07.800Z,5.77
2019-05-14T02:31:12.462Z,5.77
2019-05-14T02:32:10.368Z,5.73
2019-05-14T02:33:09.213Z,5.79
2019-05-14T02:34:10.098Z,5.56
2019-05-14T02:35:09.804Z,5.72
2019-05-14T02:36:10.322Z,5.61
2019-05-14T02:37:09.185Z,5.51
2019-05-14T02:38:10.287Z,5.59
2019-05-14T02:39:10.043Z,5.73
2019-05-14T02:40:09.797Z,5.77
2019-05-14T02:41:09.880Z,5.81
2019-05-14T02:42:09.317Z,5.77
2019-05-14T02:43:09.599Z,5.91
2019-05-14T02:44:09.793Z,5.72
2019-05-14T02:45:08.879Z,5.8
2019-05-14T02:46:22.087Z,5.83
2019-05-14T02:47:09.780Z,5.64
2019-05-14T02:48:09.552Z,5.7
2019-05-14T02:49:10.426Z,5.65
2019-05-14T02:50:09.884Z,5.76
2019-05-14T02:51:10.436Z,5.69
2019-05-14T02:52:09.888Z,5.74
2019-05-14T02:53:10.206Z,5.74
2019-05-14T02:54:09.838Z,5.65
2019-05-14T02:55:09.359Z,5.77
2019-05-14T02:56:10.269Z,5.84
2019-05-14T02:57:10.229Z,5.92
2019-05-14T02:58:09.879Z,5.97
2019-05-14T02:59:12.464Z,5.91
2019-05-14T03:00:10.058Z,5.9
2019-05-14T03:01:09.379Z,5.87
2019-05-14T03:02:09.848Z,5.88
2019-05-14T03:03:09.785Z,5.79
2019-05-14T03:04:09.052Z,5.9
2019-05-14T03:05:09.790Z,5.74
2019-05-14T03:06:09.399Z,5.81
2019-05-14T03:07:10.607Z,5.87
2019-05-14T03:08:08.961Z,5.92
2019-05-14T03:09:09.594Z,6.06
2019-05-14T03:10:09.872Z,5.94
2019-05-14T03:11:09.376Z,5.88
2019-05-14T03:12:09.974Z,5.84
2019-05-14T03:13:09.484Z,5.76
2019-05-14T03:14:08.987Z,5.77
2019-05-14T03:15:09.577Z,5.88
2019-05-14T03:16:40.138Z,5.87
2019-05-14T03:17:10.292Z,5.67
2019-05-14T03:18:11.891Z,5.59
2019-05-14T03:23:22.959Z,5.46
2019-05-14T03:24:03.517Z,5.55
2019-05-14T03:25:02.538Z,5.51
2019-05-14T03:26:03.283Z,5.43
2019-05-14T03:27:01.545Z,5.49
2019-05-14T03:28:02.661Z,5.58
2019-05-14T03:29:02.837Z,5.51
2019-05-14T03:30:03.762Z,5.64
2019-05-14T03:31:06.137Z,5.58
2019-05-14T03:32:11.824Z,5.51
2019-05-14T03:33:05.855Z,5.44
2019-05-14T03:34:05.986Z,5.47
2019-05-14T03:35:12.281Z,5.4
2019-05-14T03:36:26.142Z,5.51
2019-05-14T03:37:12.002Z,5.41
2019-05-14T03:38:03.175Z,5.52
2019-05-14T03:39:02.061Z,5.37
2019-05-14T03:40:02.151Z,5.49
2019-05-14T03:41:02.987Z,5.51
2019-05-14T03:42:04.117Z,5.52
2019-05-14T03:43:02.576Z,5.46
2019-05-14T03:44:02.892Z,5.51
2019-05-14T03:45:02.570Z,5.37
2019-05-14T03:46:04.513Z,5.33
2019-05-14T03:47:12.683Z,5.25
2019-05-14T03:48:04.037Z,5.28
2019-05-14T03:49:02.818Z,5.31
2019-05-14T03:50:04.405Z,5.31
2019-05-14T03:51:03.049Z,5.31
2019-05-14T03:52:03.762Z,5.43
2019-05-14T03:53:02.252Z,5.51
2019-05-14T03:54:15.467Z,5.52
2019-05-14T03:57:00.275Z,5.41
2019-05-14T03:57:59.390Z,5.34
2019-05-14T03:58:59.871Z,5.37
2019-05-14T03:59:59.635Z,5.16
2019-05-14T04:01:00.266Z,5.31
2019-05-14T04:01:59.579Z,5.18
2019-05-14T04:03:00.202Z,5.15
2019-05-14T04:03:59.265Z,5.25
2019-05-14T04:04:59.922Z,5.28
2019-05-14T04:05:59.316Z,5.38
2019-05-14T04:06:59.868Z,5.41
2019-05-14T04:08:00.080Z,5.41
2019-05-14T04:09:00.498Z,5.34
2019-05-14T04:09:59.483Z,5.36
2019-05-14T04:11:01.881Z,5.38
2019-05-14T04:11:59.409Z,5.51
2019-05-14T04:12:59.845Z,5.44
2019-05-14T04:14:00.122Z,5.31
2019-05-14T04:14:59.562Z,5.36
2019-05-14T04:16:00.135Z,5.31
2019-05-14T04:17:23.643Z,5.43
2019-05-14T04:27:20.234Z,5.47
2019-05-14T04:28:15.150Z,5.65
2019-05-14T04:29:15.396Z,5.73
2019-05-14T04:30:18.948Z,5.83
2019-05-14T04:31:15.090Z,5.87
2019-05-14T04:32:14.842Z,5.99
2019-05-14T04:33:18.713Z,5.79
2019-05-14T04:34:19.162Z,5.92
2019-05-14T04:35:14.893Z,5.84
2019-05-14T04:36:15.268Z,5.98
2019-05-14T04:37:15.046Z,6.05
2019-05-14T04:38:14.891Z,5.88
2019-05-14T04:39:14.774Z,5.9
2019-05-14T04:40:15.388Z,5.92
2019-05-14T04:41:19.034Z,5.98
2019-05-14T04:42:14.979Z,6.1
2019-05-14T04:43:18.955Z,6.1
2019-05-14T04:44:15.130Z,6.2
2019-05-14T04:45:19.313Z,6.22
2019-05-14T04:46:19.348Z,6.34
2019-05-14T04:47:41.912Z,6.13
2019-05-14T04:48:43.168Z,6.19
2019-05-14T04:49:15.069Z,6.25
2019-05-14T04:50:15.915Z,6.38
2019-05-14T04:51:15.175Z,6.43
2019-05-14T04:52:15.392Z,6.56
2019-05-14T04:53:14.357Z,6.52
2019-05-14T04:54:14.837Z,6.56
2019-05-14T04:55:15.327Z,6.53
2019-05-14T04:56:15.319Z,6.57
2019-05-14T04:57:16.467Z,6.59
2019-05-14T04:58:15.423Z,6.47
2019-05-14T04:59:18.897Z,6.53
2019-05-14T05:00:19.819Z,6.64
2019-05-14T05:01:15.205Z,6.71
2019-05-14T05:02:14.833Z,6.67
2019-05-14T05:03:19.880Z,6.75
2019-05-14T05:04:14.848Z,6.7
2019-05-14T05:05:14.403Z,6.77
2019-05-14T05:06:18.848Z,6.86
2019-05-14T05:07:15.257Z,6.87
2019-05-14T05:08:19.854Z,6.93
2019-05-14T05:09:14.716Z,6.95
2019-05-14T05:10:15.473Z,7.05
2019-05-14T05:11:17.013Z,7.1
2019-05-14T05:12:14.409Z,7.21
2019-05-14T05:13:14.457Z,7.21
2019-05-14T05:14:14.140Z,7.23
2019-05-14T05:15:14.682Z,7.22
2019-05-14T05:16:15.458Z,7.32
2019-05-14T05:17:14.585Z,7.33
2019-05-14T05:18:14.837Z,7.47
2019-05-14T05:19:15.526Z,7.47
2019-05-14T05:20:15.370Z,7.37
2019-05-14T05:21:14.060Z,7.36
2019-05-14T05:22:13.372Z,7.39
2019-05-14T05:23:13.743Z,7.55
2019-05-14T05:24:14.423Z,7.53
2019-05-14T05:25:13.635Z,7.58
2019-05-14T05:26:14.336Z,7.69
2019-05-14T05:27:14.574Z,7.74
2019-05-14T05:28:14.118Z,7.85
2019-05-14T05:29:15.647Z,7.81
2019-05-14T05:30:13.747Z,7.72
2019-05-14T05:31:14.636Z,7.88
2019-05-14T05:32:14.136Z,7.88
2019-05-14T05:33:14.328Z,7.93
2019-05-14T05:34:14.233Z,7.81
2019-05-14T05:35:14.763Z,7.85
2019-05-14T05:36:14.756Z,7.93
2019-05-14T05:37:13.966Z,7.87
2019-05-14T05:38:14.003Z,8.2
2019-05-14T05:39:13.972Z,8.23
2019-05-14T05:40:14.486Z,8.18
2019-05-14T05:41:14.208Z,8.17
2019-05-14T05:42:14.562Z,8.21
2019-05-14T05:43:14.191Z,8.34
2019-05-14T05:44:13.582Z,8.45
2019-05-14T05:45:13.376Z,8.45
2019-05-14T05:46:13.935Z,8.52
2019-05-14T05:47:14.607Z,8.64
2019-05-14T05:48:13.588Z,8.59
2019-05-14T05:49:13.403Z,8.74
2019-05-14T05:50:14.065Z,8.86
2019-05-14T05:51:14.384Z,8.87
2019-05-14T05:52:13.893Z,9.03
2019-05-14T05:53:14.312Z,8.87
2019-05-14T05:54:14.534Z,8.96
2019-05-14T05:55:14.238Z,9.19
2019-05-14T05:56:14.762Z,9.29
2019-05-14T05:57:14.601Z,9.47
2019-05-14T05:58:13.933Z,9.39
2019-05-14T05:59:14.818Z,9.45
2019-05-14T06:00:14.704Z,9.47
2019-05-14T06:01:14.967Z,9.52
2019-05-14T06:02:14.695Z,9.47
2019-05-14T06:03:19.934Z,9.72
2019-05-14T06:04:13.997Z,9.72
2019-05-14T06:05:13.431Z,9.8
2019-05-14T06:06:19.606Z,9.84
2019-05-14T06:07:14.102Z,10.05
2019-05-14T06:08:13.873Z,10.13
2019-05-14T06:09:14.215Z,10.18
2019-05-14T06:10:13.318Z,10.21
2019-05-14T06:11:13.756Z,10.24
2019-05-14T06:12:14.024Z,10.27
2019-05-14T06:13:18.215Z,10.55
2019-05-14T06:14:13.637Z,10.65
2019-05-14T06:15:18.779Z,10.79
2019-05-14T06:16:14.835Z,11.01
2019-05-14T06:17:13.915Z,11.26
2019-05-14T06:18:24.554Z,11.23
2019-05-14T06:19:13.537Z,11.55
2019-05-14T06:20:13.963Z,11.86
2019-05-14T06:21:14.457Z,11.99
2019-05-14T06:22:15.179Z,12.33
2019-05-14T06:23:13.688Z,12.81
2019-05-14T06:24:14.310Z,12.57
2019-05-14T06:25:20.436Z,12.95
2019-05-14T06:26:19.011Z,13.33
2019-05-14T06:27:14.750Z,12.98
2019-05-14T06:28:13.937Z,13.5
2019-05-14T06:29:13.861Z,13.61
2019-05-14T06:30:14.379Z,13.76
2019-05-14T06:31:15.330Z,13.82
2019-05-14T06:32:14.578Z,14.05
2019-05-14T06:33:14.535Z,13.98
2019-05-14T06:34:14.816Z,14.19
2019-05-14T06:35:14.108Z,14.18
2019-05-14T06:36:19.367Z,13.98
2019-05-14T06:37:13.720Z,14.2
2019-05-14T06:38:14.208Z,14.71
2019-05-14T06:39:14.441Z,14.89
2019-05-14T06:40:14.087Z,15.05
2019-05-14T06:41:13.845Z,15.15
2019-05-14T06:42:14.147Z,14.92
2019-05-14T06:43:14.486Z,15.29
2019-05-14T06:44:14.472Z,15.33
2019-05-14T06:45:14.258Z,14.81
2019-05-14T06:46:14.342Z,15.04
2019-05-14T06:47:14.596Z,14.59
2019-05-14T06:48:34.239Z,15.05
2019-05-14T06:49:14.403Z,14.93
2019-05-14T06:50:13.825Z,15.14
2019-05-14T06:51:14.098Z,14.9
2019-05-14T06:52:14.101Z,15.51
2019-05-14T06:53:13.781Z,15.52
2019-05-14T06:54:14.588Z,15.75
2019-05-14T06:55:14.307Z,16.02
2019-05-14T06:56:13.430Z,15.55
2019-05-14T06:57:14.206Z,15.81
2019-05-14T06:58:14.430Z,15.54
2019-05-14T06:59:14.289Z,15.92
2019-05-14T07:00:13.624Z,15.84
2019-05-14T07:01:14.975Z,16.05
2019-05-14T07:02:14.070Z,15.78
2019-05-14T07:03:14.241Z,16.16
2019-05-14T07:04:14.285Z,16.26
2019-05-14T07:05:13.659Z,15.92
2019-05-14T07:06:14.354Z,15.81
2019-05-14T07:07:13.850Z,16.13
2019-05-14T07:08:14.286Z,15.78
2019-05-14T07:09:13.512Z,16.12
2019-05-14T07:10:14.339Z,15.73
2019-05-14T07:11:13.833Z,16.18
2019-05-14T07:12:14.475Z,16.34
2019-05-14T07:13:13.909Z,16.13
2019-05-14T07:14:18.751Z,15.55
2019-05-14T07:15:14.617Z,15.91
2019-05-14T07:16:14.276Z,15.99
2019-05-14T07:17:14.454Z,16.17
2019-05-14T07:18:13.861Z,16.64
2019-05-14T07:19:15.883Z,15.9
2019-05-14T07:20:14.163Z,16.28
2019-05-14T07:21:13.559Z,16.1
2019-05-14T07:22:14.316Z,16.29
2019-05-14T07:23:13.596Z,16.82
2019-05-14T07:24:14.125Z,16.57
2019-05-14T07:25:15.311Z,17.09
2019-05-14T07:26:14.905Z,16.95
2019-05-14T07:27:22.032Z,17.14
2019-05-14T07:28:19.264Z,16.83
2019-05-14T07:29:22.236Z,16.86
2019-05-14T07:30:14.224Z,17.17
2019-05-14T07:31:15.101Z,17.35
2019-05-14T07:32:14.545Z,17.63
2019-05-14T07:33:14.803Z,17.12
2019-05-14T07:34:14.233Z,17.34
2019-05-14T07:35:18.121Z,17.72
2019-05-14T07:36:19.207Z,17.95
2019-05-14T07:37:18.028Z,17.68
2019-05-14T07:38:15.398Z,17.57
2019-05-14T07:39:14.691Z,17.69
2019-05-14T07:40:13.872Z,17.6
2019-05-14T07:41:14.650Z,17.28
2019-05-14T07:42:15.144Z,17.37
2019-05-14T07:43:14.492Z,17.1
2019-05-14T07:44:17.778Z,16.73
2019-05-14T07:45:18.435Z,16.77
2019-05-14T07:46:19.039Z,16.72
2019-05-14T07:47:15.807Z,16.87
2019-05-14T07:48:14.687Z,16.77
2019-05-14T07:49:18.404Z,17.04
2019-05-14T07:50:13.952Z,17.01
2019-05-14T07:51:14.263Z,17.13
2019-05-14T07:52:14.831Z,16.54
2019-05-14T07:53:17.918Z,16.34
2019-05-14T07:54:19.459Z,16.44
2019-05-14T07:55:19.273Z,16.61
2019-05-14T07:56:18.651Z,16.66
2019-05-14T07:57:28.424Z,16.08
2019-05-14T07:58:13.749Z,15.75
2019-05-14T07:59:14.329Z,15.88
2019-05-14T08:00:13.584Z,15.81
2019-05-14T08:01:14.877Z,15.94
2019-05-14T08:02:19.527Z,16.49
2019-05-14T08:03:18.972Z,16.64
2019-05-14T08:04:22.401Z,16.13
2019-05-14T08:05:19.178Z,16.21
2019-05-14T08:06:13.737Z,16.1
2019-05-14T08:07:14.405Z,16.73
2019-05-14T08:08:13.345Z,16.79
2019-05-14T08:09:13.996Z,16.17
2019-05-14T08:10:14.416Z,16.59
2019-05-14T08:11:15.151Z,16.16
2019-05-14T08:12:17.013Z,16.16
2019-05-14T08:13:13.751Z,15.9
2019-05-14T08:14:14.426Z,15.87
2019-05-14T08:15:25.207Z,16.25
2019-05-14T08:16:14.317Z,15.94
2019-05-14T08:17:13.965Z,16.43
2019-05-14T08:18:14.477Z,16.87
2019-05-14T08:19:34.427Z,16.72
2019-05-14T08:20:14.345Z,16.59
2019-05-14T08:21:13.723Z,15.98
2019-05-14T08:22:14.878Z,16.16
2019-05-14T08:23:14.394Z,16.05
2019-05-14T08:24:19.744Z,16.1
2019-05-14T08:25:13.865Z,16.5
2019-05-14T08:26:13.345Z,16.44
2019-05-14T08:27:32.309Z,16.91
2019-05-14T08:28:13.399Z,16.59
2019-05-14T08:29:13.958Z,16.06
2019-05-14T08:30:13.474Z,16.46
2019-05-14T08:31:14.710Z,16.54
2019-05-14T08:32:14.144Z,16.05
2019-05-14T08:33:14.194Z,16.59
2019-05-14T08:34:14.491Z,16.46
2019-05-14T08:35:14.317Z,16.49
2019-05-14T08:36:14.214Z,16.69
2019-05-14T08:37:13.613Z,16.47
2019-05-14T08:38:18.420Z,16.8
2019-05-14T08:39:14.091Z,16.47
2019-05-14T08:40:20.896Z,16.92
2019-05-14T08:41:13.793Z,17.09
2019-05-14T08:42:14.050Z,16.57
2019-05-14T08:43:13.950Z,16.83
2019-05-14T08:44:13.863Z,16.91
2019-05-14T08:45:18.942Z,17.42
2019-05-14T08:46:14.689Z,17.53
2019-05-14T08:47:14.901Z,17.04
2019-05-14T08:48:18.736Z,17.42
2019-05-14T08:49:15.504Z,17.16
2019-05-14T08:50:21.555Z,17.73
2019-05-14T08:51:15.397Z,17.73
2019-05-14T08:52:16.030Z,17.2
2019-05-14T08:53:15.234Z,17.3
2019-05-14T08:54:13.546Z,16.89
2019-05-14T08:55:20.973Z,16.61
2019-05-14T08:56:15.679Z,17.07
2019-05-14T08:57:24.591Z,17.31
2019-05-14T08:58:22.585Z,17.2
2019-05-14T08:59:13.995Z,17.23
2019-05-14T09:00:20.983Z,17.41
2019-05-14T09:01:13.597Z,17.27
2019-05-14T09:02:16.033Z,16.92
2019-05-14T09:03:13.752Z,17.17
2019-05-14T09:04:14.339Z,17.14
2019-05-14T09:05:18.096Z,17.16
2019-05-14T09:06:14.473Z,16.44
2019-05-14T09:07:14.814Z,16.37
2019-05-14T09:08:14.143Z,15.88
2019-05-14T09:09:14.594Z,15.76
2019-05-14T09:10:14.086Z,16.08
2019-05-14T09:11:15.322Z,16.43
2019-05-14T09:12:18.728Z,16.77
2019-05-14T09:13:13.905Z,17.16
2019-05-14T09:14:18.677Z,17.16
2019-05-14T09:15:15.164Z,16.55
2019-05-14T09:16:14.578Z,17.01
2019-05-14T09:17:18.463Z,17.24
2019-05-14T09:18:18.406Z,16.36
2019-05-14T09:19:13.988Z,16.66
2019-05-14T09:20:18.610Z,16.49
2019-05-14T09:21:14.024Z,16.18
2019-05-14T09:22:14.863Z,15.85
2019-05-14T09:23:14.459Z,15.9
2019-05-14T09:24:14.861Z,15.98
2019-05-14T09:25:13.782Z,16.37
2019-05-14T09:26:14.931Z,16.09
2019-05-14T09:27:13.800Z,16.17
2019-05-14T09:28:14.374Z,15.88
2019-05-14T09:29:29.684Z,15.8
2019-05-14T09:30:15.008Z,15.57
2019-05-14T09:31:13.789Z,15.96
2019-05-14T09:32:14.835Z,16.55
2019-05-14T09:33:13.943Z,17.1
2019-05-14T09:34:14.520Z,17.09
2019-05-14T09:35:15.069Z,16.89
2019-05-14T09:36:28.905Z,16.91
2019-05-14T09:37:13.984Z,17.24
2019-05-14T09:38:14.303Z,17.09
2019-05-14T09:39:18.727Z,17.23
2019-05-14T09:40:13.985Z,17.28
2019-05-14T09:41:21.283Z,17.01
2019-05-14T09:42:13.589Z,16.79
2019-05-14T09:43:14.484Z,16.61
2019-05-14T09:44:14.585Z,16.16
2019-05-14T09:45:16.290Z,17.13
2019-05-14T09:46:14.331Z,16.94
2019-05-14T09:47:14.015Z,16.77
2019-05-14T09:48:14.161Z,17.17
2019-05-14T09:49:13.347Z,17.19
2019-05-14T09:50:28.609Z,16.92
2019-05-14T09:51:14.537Z,16.58
2019-05-14T09:52:14.292Z,16.46
2019-05-14T09:53:15.037Z,16.13
2019-05-14T09:54:13.811Z,16.34
2019-05-14T09:55:14.639Z,16.8
2019-05-14T09:56:14.436Z,16.84
2019-05-14T09:57:13.629Z,17.2
2019-05-14T09:58:13.534Z,16.92
2019-05-14T09:59:14.612Z,17.52
2019-05-14T10:00:18.588Z,17.47
2019-05-14T10:01:13.882Z,16.95
2019-05-14T10:02:14.531Z,16.55
2019-05-14T10:03:14.962Z,16.69
2019-05-14T10:04:14.445Z,16.44
2019-05-14T10:05:14.324Z,15.78
2019-05-14T10:06:15.020Z,15.99
2019-05-14T10:07:18.048Z,16.12
2019-05-14T10:08:14.277Z,16.68
2019-05-14T10:09:13.956Z,17.27
2019-05-14T10:10:13.257Z,16.94
2019-05-14T10:11:13.236Z,16.69
2019-05-14T10:12:14.222Z,16.76
2019-05-14T10:13:15.032Z,16.8
2019-05-14T10:14:13.362Z,16.41
2019-05-14T10:15:14.104Z,15.81
2019-05-14T10:16:14.780Z,15.63
2019-05-14T10:17:13.260Z,15.63
2019-05-14T10:18:18.975Z,15.81
2019-05-14T10:19:13.204Z,15.69
2019-05-14T10:20:14.138Z,15.55
2019-05-14T10:21:13.957Z,15.26
2019-05-14T10:22:13.694Z,15.19
2019-05-14T10:23:14.549Z,15.41
2019-05-14T10:24:14.633Z,15.78
2019-05-14T10:25:14.430Z,16.43
2019-05-14T10:26:14.381Z,16.41
2019-05-14T10:27:14.341Z,16.46
2019-05-14T10:28:13.885Z,15.92
2019-05-14T10:29:13.973Z,15.7
2019-05-14T10:30:17.956Z,15.48
2019-05-14T10:31:18.258Z,15.12
2019-05-14T10:32:14.076Z,15.36
2019-05-14T10:33:20.970Z,15.5
2019-05-14T10:34:13.681Z,15.99
2019-05-14T10:35:13.806Z,16.21
2019-05-14T10:36:14.495Z,15.52
2019-05-14T10:37:14.025Z,15.66
2019-05-14T10:38:14.061Z,15.55
2019-05-14T10:39:14.655Z,15.51
2019-05-14T10:40:18.201Z,15.32
2019-05-14T10:41:14.256Z,15.6
2019-05-14T10:42:14.238Z,16.02
2019-05-14T10:43:14.461Z,15.85
2019-05-14T10:44:14.502Z,15.55
2019-05-14T10:45:18.611Z,15.66
2019-05-14T10:46:14.381Z,15.47
2019-05-14T10:47:14.626Z,15.94
2019-05-14T10:48:14.922Z,16.72
2019-05-14T10:49:29.232Z,16.64
2019-05-14T10:50:20.892Z,16.4
2019-05-14T10:51:15.214Z,16.34
2019-05-14T10:52:13.657Z,16.65
2019-05-14T10:53:14.339Z,16.36
2019-05-14T10:54:31.279Z,17.23
2019-05-14T10:55:13.355Z,17.68
2019-05-14T10:56:15.099Z,17.44
2019-05-14T10:57:14.985Z,17.5
2019-05-14T10:58:14.228Z,17.47
2019-05-14T10:59:14.753Z,17.53
2019-05-14T11:00:14.166Z,17.69
2019-05-14T11:01:20.572Z,17.28
2019-05-14T11:02:18.527Z,17.69
2019-05-14T11:03:13.324Z,17.73
2019-05-14T11:04:13.365Z,17.91
2019-05-14T11:05:13.334Z,17.97
2019-05-14T11:06:18.698Z,18.33
2019-05-14T11:07:13.328Z,18.58
2019-05-14T11:08:18.856Z,18.89
2019-05-14T11:09:14.379Z,18.3
2019-05-14T11:10:14.526Z,18.81
2019-05-14T11:11:18.320Z,18.43
2019-05-14T11:12:14.658Z,17.93
2019-05-14T11:13:14.289Z,17.95
2019-05-14T11:14:14.141Z,17.63
2019-05-14T11:15:13.340Z,17.32
2019-05-14T11:16:13.919Z,17.31
2019-05-14T11:17:19.580Z,17.32
2019-05-14T11:18:13.930Z,16.87
2019-05-14T11:19:14.736Z,16.61
2019-05-14T11:20:13.372Z,16.57
2019-05-14T11:21:31.846Z,16.91
2019-05-14T11:22:13.813Z,16.65
2019-05-14T11:23:14.273Z,16.77
2019-05-14T11:24:14.772Z,16.57
2019-05-14T11:25:14.529Z,16.47
2019-05-14T11:26:14.699Z,16.84
2019-05-14T11:27:13.375Z,17.46
2019-05-14T11:28:13.472Z,17.52
2019-05-14T11:29:13.488Z,17.38
2019-05-14T11:30:14.158Z,17.56
2019-05-14T11:31:14.517Z,17.8
2019-05-14T11:32:15.068Z,18.24
2019-05-14T11:33:14.455Z,17.88
2019-05-14T11:34:13.665Z,17.65
2019-05-14T11:35:19.125Z,17.04
2019-05-14T11:36:14.667Z,17.12
2019-05-14T11:37:13.991Z,16.79
2019-05-14T11:38:40.052Z,17.46
2019-05-14T11:39:14.744Z,17.41
2019-05-14T11:40:14.077Z,17.23
2019-05-14T11:41:14.907Z,17.65
2019-05-14T11:42:13.879Z,17.95
2019-05-14T11:43:13.815Z,17.94
2019-05-14T11:44:14.473Z,18.66
2019-05-14T11:45:14.461Z,18.23
2019-05-14T11:46:14.073Z,18.3
2019-05-14T11:47:14.370Z,17.52
2019-05-14T11:48:14.150Z,17.17
2019-05-14T11:49:14.123Z,17.52
2019-05-14T11:50:15.253Z,17.63
2019-05-14T11:51:14.406Z,17.68
2019-05-14T11:52:18.032Z,18
2019-05-14T11:53:13.800Z,17.34
2019-05-14T11:54:14.762Z,16.83
2019-05-14T11:55:14.358Z,17.01
2019-05-14T11:56:14.064Z,17.14
2019-05-14T11:57:19.273Z,16.99
2019-05-14T11:58:14.047Z,17.05
2019-05-14T11:59:13.937Z,17.63
2019-05-14T12:00:13.966Z,18.39
2019-05-14T12:01:14.520Z,18.24
2019-05-14T12:02:14.860Z,18
2019-05-14T12:03:14.530Z,17.88
2019-05-14T12:04:14.296Z,18.16
2019-05-14T12:05:14.278Z,17.94
2019-05-14T12:06:15.111Z,17.94
2019-05-14T12:07:14.955Z,18.24
2019-05-14T12:08:13.947Z,17.63
2019-05-14T12:09:18.884Z,17.88
2019-05-14T12:10:14.360Z,17.53
2019-05-14T12:11:14.036Z,17.57
2019-05-14T12:12:18.971Z,17.73
2019-05-14T12:13:13.951Z,17.31
2019-05-14T12:14:14.318Z,16.92
2019-05-14T12:15:14.185Z,16.77
2019-05-14T12:16:13.907Z,16.83
2019-05-14T12:17:14.761Z,16.76
2019-05-14T12:18:15.672Z,16.91
2019-05-14T12:19:18.787Z,16.61
2019-05-14T12:20:13.457Z,16.69
2019-05-14T12:21:14.240Z,16.72
2019-05-14T12:22:18.955Z,16.77
2019-05-14T12:23:14.171Z,16.77
2019-05-14T12:24:21.019Z,16.91
2019-05-14T12:25:13.734Z,17.12
2019-05-14T12:26:14.896Z,16.82
2019-05-14T12:27:14.147Z,16.79
2019-05-14T12:28:21.737Z,16.87
2019-05-14T12:29:15.188Z,16.76
2019-05-14T12:30:15.013Z,17.1
2019-05-14T12:31:14.686Z,17.46
2019-05-14T12:32:18.823Z,17.17
2019-05-14T12:33:13.509Z,17.57
2019-05-14T12:34:13.461Z,17.5
2019-05-14T12:35:13.858Z,17.88
2019-05-14T12:36:18.985Z,17.8
2019-05-14T12:37:14.379Z,17.68
2019-05-14T12:38:15.347Z,17.2
2019-05-14T12:39:14.922Z,16.64
2019-05-14T12:40:14.153Z,16.87
2019-05-14T12:41:14.515Z,16.49
2019-05-14T12:42:19.032Z,16.51
2019-05-14T12:43:14.913Z,16.73
2019-05-14T12:44:14.674Z,16.95
2019-05-14T12:45:14.505Z,17.1
2019-05-14T12:46:15.772Z,17.22
2019-05-14T12:47:14.760Z,17.14
2019-05-14T12:48:14.554Z,17.12
2019-05-14T12:49:18.600Z,17.24
2019-05-14T12:50:14.653Z,17.1
2019-05-14T12:51:14.344Z,17.42
2019-05-14T12:52:32.259Z,17.47
2019-05-14T12:53:13.899Z,17.54
2019-05-14T12:54:14.556Z,17.57
2019-05-14T12:55:14.567Z,17.42
2019-05-14T12:56:14.013Z,17.54
2019-05-14T12:57:13.508Z,17.05
2019-05-14T12:58:13.536Z,16.84
2019-05-14T12:59:13.849Z,16.8
2019-05-14T13:00:14.271Z,16.47
2019-05-14T13:01:14.427Z,16.1
2019-05-14T13:02:15.036Z,16.06
2019-05-14T13:03:14.450Z,16.06
2019-05-14T13:04:13.822Z,15.88
2019-05-14T13:05:14.292Z,15.98
2019-05-14T13:06:15.445Z,16.09
2019-05-14T13:07:14.455Z,15.69
2019-05-14T13:08:18.384Z,15.75
2019-05-14T13:09:16.431Z,15.87
2019-05-14T13:12:21.670Z,15.6
2019-05-14T13:12:35.008Z,15.84
2019-05-14T13:13:34.295Z,15.78
2019-05-14T13:14:33.612Z,16.03
2019-05-14T13:15:33.963Z,15.94
2019-05-14T13:16:33.899Z,15.78
2019-05-14T13:17:34.238Z,15.91
2019-05-14T13:18:34.394Z,15.72
2019-05-14T13:19:33.761Z,15.69
2019-05-14T13:20:34.368Z,15.96
2019-05-14T13:21:34.272Z,16.41
2019-05-14T13:22:50.138Z,16.51
2019-05-14T13:23:34.652Z,17.01
2019-05-14T13:24:34.080Z,16.87
2019-05-14T13:25:38.939Z,16.76
2019-05-14T13:26:35.037Z,16.87